Time;durP1;ratioP1;P1;durP2;ratioP2;P2;SDS_P1;SDS_P2;PMS_P1;PMS_P2;Temp;Humidity;BMP_temperature;BMP_pressure;BME280_temperature;BME280_humidity;BME280_pressure;Samples;Min_cycle;Max_cycle;Signal;HPM_P1;HPM_P2
2021/10/17 00:00:15;;;;;;;1999.90;999.90;;;;;;;9.23;100.00;95911.41;5047151;28;20219;-68
2021/10/17 00:02:43;;;;;;;1999.90;999.90;;;;;;;9.18;100.00;95928.81;5046998;28;20214;-68
2021/10/17 00:05:11;;;;;;;1999.90;999.90;;;;;;;9.16;100.00;95923.16;5047011;28;20204;-68
2021/10/17 00:07:39;;;;;;;1999.90;999.90;;;;;;;9.02;100.00;95928.19;5050037;28;20201;-68
2021/10/17 00:10:09;;;;;;;1999.90;999.90;;;;;;;9.14;100.00;95920.84;5050383;28;20673;-68
2021/10/17 00:12:36;;;;;;;1999.90;999.90;;;;;;;9.06;100.00;95929.22;5050541;28;20618;-69
2021/10/17 00:15:07;;;;;;;1999.90;999.90;;;;;;;9.03;100.00;95927.91;5050513;28;20258;-69
2021/10/17 00:17:34;;;;;;;1999.90;999.90;;;;;;;9.11;100.00;95925.78;5050276;28;20228;-68
2021/10/17 00:20:02;;;;;;;1999.90;999.90;;;;;;;9.15;100.00;95927.56;5050371;28;20208;-68
2021/10/17 00:22:29;;;;;;;1999.90;999.90;;;;;;;8.99;100.00;95920.97;5050359;28;20316;-68
2021/10/17 00:24:56;;;;;;;1999.90;999.90;;;;;;;9.06;100.00;95926.63;5050335;28;20212;-68
2021/10/17 00:27:23;;;;;;;1999.90;999.90;;;;;;;8.95;100.00;95922.56;5049989;28;20197;-68
2021/10/17 00:29:50;;;;;;;1999.90;999.90;;;;;;;9.01;100.00;95924.06;5049629;28;20297;-68
2021/10/17 00:32:19;;;;;;;1999.90;999.90;;;;;;;8.95;100.00;95917.38;5050309;28;20193;-68
2021/10/17 00:34:46;;;;;;;1999.90;999.90;;;;;;;8.92;100.00;95923.84;5049907;28;20201;-68
2021/10/17 00:37:13;;;;;;;1999.90;999.90;;;;;;;9.04;100.00;95918.31;5049915;28;20287;-68
2021/10/17 00:39:40;;;;;;;1999.90;999.90;;;;;;;8.90;100.00;95923.38;5050017;28;20236;-68
2021/10/17 00:42:08;;;;;;;1999.90;999.90;;;;;;;8.92;100.00;95923.06;5049972;28;20609;-68
2021/10/17 00:44:38;;;;;;;1999.90;999.90;;;;;;;8.95;100.00;95917.38;5049750;28;20687;-68
2021/10/17 00:47:06;;;;;;;1999.90;999.90;;;;;;;8.84;100.00;95919.25;5049639;28;20182;-68
2021/10/17 00:49:34;;;;;;;1999.90;999.90;;;;;;;8.93;100.00;95920.22;5049983;28;20220;-68
2021/10/17 00:52:03;;;;;;;1999.90;999.90;;;;;;;8.95;100.00;95918.16;5049855;28;20202;-68
2021/10/17 00:54:30;;;;;;;1999.90;999.90;;;;;;;8.87;100.00;95918.72;5049634;28;20208;-68
2021/10/17 00:56:57;;;;;;;1999.90;999.90;;;;;;;8.90;100.00;95915.59;5049792;28;20236;-68
2021/10/17 00:59:24;;;;;;;1999.90;999.90;;;;;;;8.84;100.00;95918.50;5049892;28;20661;-68
2021/10/17 01:01:51;;;;;;;1999.90;999.90;;;;;;;8.92;100.00;95920.47;5049726;28;20224;-68
2021/10/17 01:04:18;;;;;;;1999.90;999.90;;;;;;;8.97;100.00;95921.22;5049584;28;20695;-68
2021/10/17 01:06:47;;;;;;;1999.90;999.90;;;;;;;8.88;100.00;95922.06;5049633;28;20208;-68
2021/10/17 01:09:14;;;;;;;1999.90;999.90;;;;;;;8.99;100.00;95924.31;5049818;28;20669;-68
2021/10/17 01:11:43;;;;;;;1999.90;999.90;;;;;;;8.85;100.00;95922.63;5049432;28;20588;-68
2021/10/17 01:14:10;;;;;;;1999.90;999.90;;;;;;;8.85;100.00;95927.81;5048977;28;20209;-68
2021/10/17 01:16:40;;;;;;;1999.90;999.90;;;;;;;8.89;100.00;95921.03;5049497;28;20209;-68
2021/10/17 01:19:07;;;;;;;1999.90;999.90;;;;;;;8.90;100.00;95920.78;5048604;28;20193;-68
2021/10/17 01:21:38;;;;;;;1999.90;999.90;;;;;;;8.99;100.00;95915.78;5049004;28;20742;-68
2021/10/17 01:24:05;;;;;;;1999.90;999.90;;;;;;;8.91;100.00;95921.56;5049133;28;20189;-68
2021/10/17 01:26:33;;;;;;;1999.90;999.90;;;;;;;8.93;100.00;95922.81;5049410;28;20208;-67
2021/10/17 01:29:01;;;;;;;1999.90;999.90;;;;;;;8.97;100.00;95926.41;5049299;28;20197;-68
2021/10/17 01:31:35;;;;;;;1999.90;999.90;;;;;;;8.86;100.00;95919.78;5048945;28;20336;-68
2021/10/17 01:34:04;;;;;;;1999.90;999.90;;;;;;;8.97;100.00;95929.00;5049007;28;20211;-68
2021/10/17 01:36:31;;;;;;;1999.90;999.90;;;;;;;8.98;100.00;95927.97;5048878;28;20201;-68
2021/10/17 01:39:00;;;;;;;1999.90;999.90;;;;;;;9.15;100.00;95916.41;5049289;28;20550;-68
2021/10/17 01:41:27;;;;;;;1999.90;999.90;;;;;;;9.09;100.00;95920.88;5048916;28;20205;-68
2021/10/17 01:44:00;;;;;;;1999.90;999.90;;;;;;;9.19;100.00;95915.59;5048727;28;20221;-68
2021/10/17 01:46:27;;;;;;;1999.90;999.90;;;;;;;9.13;100.00;95914.09;5049138;28;20198;-67
2021/10/17 01:48:55;;;;;;;1999.90;999.90;;;;;;;9.10;100.00;95914.66;5048988;28;20284;-68
2021/10/17 01:51:22;;;;;;;1999.90;999.90;;;;;;;9.17;100.00;95914.31;5049043;28;20622;-68
2021/10/17 01:53:49;;;;;;;1999.90;999.90;;;;;;;9.10;100.00;95919.06;5048931;28;20193;-68
2021/10/17 01:56:18;;;;;;;1999.90;999.90;;;;;;;9.08;100.00;95921.91;5048674;28;20284;-68
2021/10/17 01:58:45;;;;;;;1999.90;999.90;;;;;;;9.20;100.00;95918.97;5048883;28;20249;-68
2021/10/17 02:01:12;;;;;;;1999.90;999.90;;;;;;;9.22;100.00;95928.00;5048597;28;20201;-67
2021/10/17 02:03:39;;;;;;;1999.90;999.90;;;;;;;9.28;100.00;95923.56;5048408;28;20704;-67
2021/10/17 02:06:06;;;;;;;1999.90;999.90;;;;;;;9.33;100.00;95926.88;5048819;28;20590;-68
2021/10/17 02:08:34;;;;;;;1999.90;999.90;;;;;;;9.41;100.00;95920.31;5048481;28;20258;-68
2021/10/17 02:11:01;;;;;;;1999.90;999.90;;;;;;;9.37;100.00;95927.09;5048637;28;20197;-68
2021/10/17 02:13:30;;;;;;;1999.90;999.90;;;;;;;9.40;100.00;95924.75;5048425;28;20240;-68
2021/10/17 02:15:57;;;;;;;1999.90;999.90;;;;;;;9.46;100.00;95921.03;5048663;28;20205;-68
2021/10/17 02:18:24;;;;;;;1999.90;999.90;;;;;;;9.42;100.00;95922.63;5048593;28;20645;-68
2021/10/17 02:20:51;;;;;;;1999.90;999.90;;;;;;;9.42;100.00;95927.03;5048175;28;20209;-68
2021/10/17 02:23:19;;;;;;;1999.90;999.90;;;;;;;9.43;100.00;95921.59;5048153;28;20228;-68
2021/10/17 02:25:46;;;;;;;1999.90;999.90;;;;;;;9.44;100.00;95917.94;5048212;28;20208;-68
2021/10/17 02:28:13;;;;;;;1999.90;999.90;;;;;;;9.43;100.00;95926.78;5048115;28;20197;-68
2021/10/17 02:30:42;;;;;;;1999.90;999.90;;;;;;;9.42;100.00;95927.81;5047577;28;20787;-68
2021/10/17 02:33:09;;;;;;;1999.90;999.90;;;;;;;9.48;100.00;95931.13;5048087;28;20197;-68
2021/10/17 02:35:36;;;;;;;1999.90;999.90;;;;;;;9.51;100.00;95931.34;5048335;28;20563;-68
2021/10/17 02:38:03;;;;;;;1999.90;999.90;;;;;;;9.56;100.00;95933.16;5048210;28;20208;-68
2021/10/17 02:40:30;;;;;;;1999.90;999.90;;;;;;;9.48;100.00;95924.13;5048059;28;20197;-68
2021/10/17 02:42:58;;;;;;;1999.90;999.90;;;;;;;9.42;100.00;95927.81;5048110;28;20232;-68
2021/10/17 02:45:25;;;;;;;1999.90;999.90;;;;;;;9.40;100.00;95935.13;5048056;28;20225;-68
2021/10/17 02:47:53;;;;;;;1999.90;999.90;;;;;;;9.39;100.00;95936.16;5048058;28;20240;-68
2021/10/17 02:50:21;;;;;;;1999.90;999.90;;;;;;;9.36;100.00;95935.94;5048086;28;20212;-69
2021/10/17 02:52:48;;;;;;;1999.90;999.90;;;;;;;9.35;100.00;95942.16;5047656;28;20687;-68
2021/10/17 02:55:15;;;;;;;1999.90;999.90;;;;;;;9.31;100.00;95947.13;5048143;28;20231;-67
2021/10/17 02:57:42;;;;;;;1999.90;999.90;;;;;;;9.30;100.00;95940.41;5047573;28;20204;-68
2021/10/17 03:00:10;;;;;;;1999.90;999.90;;;;;;;9.20;100.00;95943.09;5048006;28;20190;-68
2021/10/17 03:02:37;;;;;;;1999.90;999.90;;;;;;;9.20;100.00;95945.69;5047530;28;20229;-68
2021/10/17 03:05:07;;;;;;;1999.90;999.90;;;;;;;9.14;100.00;95946.75;5047516;28;20197;-68
2021/10/17 03:07:34;;;;;;;1999.90;999.90;;;;;;;9.19;100.00;95949.31;5047865;28;20225;-68
2021/10/17 03:10:02;;;;;;;1999.90;999.90;;;;;;;9.16;100.00;95949.09;5047436;28;20223;-68
2021/10/17 03:12:29;;;;;;;1999.90;999.90;;;;;;;9.14;100.00;95946.75;5047410;28;20193;-68
2021/10/17 03:14:56;;;;;;;1999.90;999.90;;;;;;;9.12;100.00;95948.84;5047367;28;20655;-68
2021/10/17 03:17:23;;;;;;;1999.90;999.90;;;;;;;9.08;100.00;95945.25;5047590;28;20201;-68
2021/10/17 03:19:51;;;;;;;1999.90;999.90;;;;;;;9.14;100.00;95951.94;5047085;28;20316;-68
2021/10/17 03:22:19;;;;;;;1999.90;999.90;;;;;;;9.10;100.00;95947.56;5047447;28;20201;-68
2021/10/17 03:24:46;;;;;;;1999.90;999.90;;;;;;;9.15;100.00;95947.53;5047469;28;20216;-67
2021/10/17 03:27:13;;;;;;;1999.90;999.90;;;;;;;9.07;100.00;95946.28;5047243;28;20197;-68
2021/10/17 03:29:40;;;;;;;1999.90;999.90;;;;;;;9.02;100.00;95947.09;5046967;28;20207;-68
2021/10/17 03:32:08;;;;;;;1999.90;999.90;;;;;;;9.10;100.00;95950.16;5047265;28;20192;-68
2021/10/17 03:34:35;;;;;;;1999.90;999.90;;;;;;;9.11;100.00;95944.72;5047217;28;20193;-68
2021/10/17 03:37:02;;;;;;;1999.90;999.90;;;;;;;9.13;100.00;95945.19;5047132;28;20208;-68
2021/10/17 03:39:31;;;;;;;1999.90;999.90;;;;;;;9.15;100.00;95945.72;5047071;28;20203;-68
2021/10/17 03:41:58;;;;;;;1999.90;999.90;;;;;;;9.18;100.00;95952.94;5046098;28;20194;-68
2021/10/17 03:44:25;;;;;;;1999.90;999.90;;;;;;;9.16;100.00;95949.88;5046933;28;20261;-68
2021/10/17 03:46:53;;;;;;;1999.90;999.90;;;;;;;9.22;100.00;95958.34;5047260;28;20203;-68
2021/10/17 03:49:20;;;;;;;1999.90;999.90;;;;;;;9.21;100.00;95946.44;5047071;28;20620;-68
2021/10/17 03:51:47;;;;;;;1999.90;999.90;;;;;;;9.20;100.00;95950.84;5046961;28;20203;-68
2021/10/17 03:54:14;;;;;;;1999.90;999.90;;;;;;;9.21;100.00;95952.41;5046877;28;20204;-68
2021/10/17 03:56:43;;;;;;;1999.90;999.90;;;;;;;9.25;100.00;95948.22;5046963;28;20221;-68
2021/10/17 03:59:10;;;;;;;1999.90;999.90;;;;;;;9.31;100.00;95957.50;5046835;28;20201;-68
2021/10/17 04:01:37;;;;;;;1999.90;999.90;;;;;;;9.36;100.00;95956.69;5046844;28;20196;-68
2021/10/17 04:04:05;;;;;;;1999.90;999.90;;;;;;;9.26;100.00;95954.19;5046797;28;20217;-68
2021/10/17 04:06:32;;;;;;;1999.90;999.90;;;;;;;9.35;100.00;95953.31;5046738;28;20203;-68
2021/10/17 04:08:59;;;;;;;1999.90;999.90;;;;;;;9.25;100.00;95953.41;5046763;28;20586;-68
2021/10/17 04:11:26;;;;;;;1999.90;999.90;;;;;;;9.21;100.00;95954.22;5046994;28;20212;-68
2021/10/17 04:13:55;;;;;;;1999.90;999.90;;;;;;;9.17;100.00;95961.75;5046798;28;20687;-69
2021/10/17 04:16:22;;;;;;;1999.90;999.90;;;;;;;9.11;100.00;95957.69;5046956;28;20240;-68
2021/10/17 04:18:49;;;;;;;1999.90;999.90;;;;;;;9.24;100.00;95959.63;5046801;28;20193;-68
2021/10/17 04:21:16;;;;;;;1999.90;999.90;;;;;;;9.16;100.00;95960.25;5046917;28;20220;-68
2021/10/17 04:23:44;;;;;;;1999.90;999.90;;;;;;;9.11;100.00;95955.09;5046502;28;20705;-69
2021/10/17 04:26:11;;;;;;;1999.90;999.90;;;;;;;9.15;100.00;95961.28;5046476;28;20258;-68
2021/10/17 04:28:38;;;;;;;1999.90;999.90;;;;;;;9.13;100.00;95955.56;5046458;28;20197;-68
2021/10/17 04:31:07;;;;;;;1999.90;999.90;;;;;;;9.14;100.00;95961.53;5046322;28;20237;-68
2021/10/17 04:33:34;;;;;;;1999.90;999.90;;;;;;;9.13;100.00;95965.94;5046643;28;20610;-68
2021/10/17 04:36:01;;;;;;;1999.90;999.90;;;;;;;9.19;100.00;95964.88;5046676;28;20205;-68
2021/10/17 04:38:28;;;;;;;1999.90;999.90;;;;;;;9.11;100.00;95973.25;5046590;28;20581;-68
2021/10/17 04:40:56;;;;;;;1999.90;999.90;;;;;;;9.07;100.00;95977.41;5046335;28;20193;-68
2021/10/17 04:43:23;;;;;;;1999.90;999.90;;;;;;;9.11;100.00;95968.06;5046107;28;20225;-68
2021/10/17 04:45:50;;;;;;;1999.90;999.90;;;;;;;9.14;100.00;95983.06;5046259;28;20199;-68
2021/10/17 04:48:19;;;;;;;1999.90;999.90;;;;;;;9.17;100.00;95972.13;5046173;28;20212;-68
2021/10/17 04:50:46;;;;;;;1999.90;999.90;;;;;;;9.17;100.00;95976.53;5046505;28;20197;-69
2021/10/17 04:53:13;;;;;;;1999.90;999.90;;;;;;;9.23;100.00;95978.06;5048446;28;20204;-68
2021/10/17 04:55:40;;;;;;;1999.90;999.90;;;;;;;9.21;100.00;95978.34;5049538;28;20199;-67
2021/10/17 04:58:08;;;;;;;1999.90;999.90;;;;;;;9.23;100.00;95984.00;5049862;28;20201;-68
2021/10/17 05:00:35;;;;;;;1999.90;999.90;;;;;;;9.30;100.00;95986.31;5049775;28;20201;-68
2021/10/17 05:03:02;;;;;;;1999.90;999.90;;;;;;;9.37;100.00;95995.31;5049231;28;20228;-68
2021/10/17 05:05:30;;;;;;;1999.90;999.90;;;;;;;9.41;100.00;95998.91;5049432;28;20208;-68
2021/10/17 05:07:58;;;;;;;1999.90;999.90;;;;;;;9.46;100.00;96001.44;5049255;28;20693;-68
2021/10/17 05:10:25;;;;;;;1999.90;999.90;;;;;;;9.41;100.00;96006.69;5049374;28;20197;-68
2021/10/17 05:12:52;;;;;;;1999.90;999.90;;;;;;;9.46;100.00;96000.69;5049224;28;20212;-68
2021/10/17 05:15:19;;;;;;;1999.90;999.90;;;;;;;9.53;100.00;96011.50;5049019;28;20250;-68
2021/10/17 05:17:46;;;;;;;1999.90;999.90;;;;;;;9.56;100.00;96010.97;5049392;28;20204;-68
2021/10/17 05:20:13;;;;;;;1999.90;999.90;;;;;;;9.56;100.00;96012.81;5049420;28;20205;-68
2021/10/17 05:22:42;;;;;;;1999.90;999.90;;;;;;;9.59;100.00;96014.84;5048951;28;20201;-69
2021/10/17 05:25:11;;;;;;;1999.90;999.90;;;;;;;9.64;100.00;96022.56;5049378;28;20225;-68
2021/10/17 05:27:39;;;;;;;1999.90;999.90;;;;;;;9.63;100.00;96021.03;5048879;28;20237;-68
2021/10/17 05:30:07;;;;;;;1999.90;999.90;;;;;;;9.69;100.00;96019.94;5048945;28;20256;-68
2021/10/17 05:32:34;;;;;;;1999.90;999.90;;;;;;;9.58;100.00;96023.66;5048849;28;20198;-68
2021/10/17 05:35:01;;;;;;;1999.90;999.90;;;;;;;9.57;100.00;96028.06;5048813;28;20193;-68
2021/10/17 05:37:28;;;;;;;1999.90;999.90;;;;;;;9.56;100.00;96025.78;5049263;28;20198;-68
2021/10/17 05:39:56;;;;;;;1999.90;999.90;;;;;;;9.59;100.00;96020.81;5048919;28;20194;-68
2021/10/17 05:42:24;;;;;;;1999.90;999.90;;;;;;;9.67;100.00;96027.22;5049100;28;20714;-68
2021/10/17 05:44:51;;;;;;;1999.90;999.90;;;;;;;9.72;100.00;96030.53;5048590;28;20232;-68
2021/10/17 05:47:18;;;;;;;1999.90;999.90;;;;;;;9.76;100.00;96030.78;5049069;28;20204;-67
2021/10/17 05:49:45;;;;;;;1999.90;999.90;;;;;;;9.83;100.00;96034.59;5048601;28;20254;-68
2021/10/17 05:52:13;;;;;;;1999.90;999.90;;;;;;;9.83;100.00;96036.41;5049046;28;20197;-68
2021/10/17 05:54:40;;;;;;;1999.90;999.90;;;;;;;9.85;100.00;96039.50;5048684;28;20197;-68
2021/10/17 05:57:08;;;;;;;1999.90;999.90;;;;;;;9.90;100.00;96040.25;5048510;28;20204;-68
2021/10/17 05:59:36;;;;;;;1999.90;999.90;;;;;;;10.02;100.00;96041.66;5048366;28;20197;-68
2021/10/17 06:02:03;;;;;;;1999.90;999.90;;;;;;;10.10;100.00;96041.06;5048400;28;20219;-68
2021/10/17 06:04:30;;;;;;;1999.90;999.90;;;;;;;10.21;100.00;96045.91;5047743;28;20220;-68
2021/10/17 06:06:57;;;;;;;1999.90;999.90;;;;;;;10.18;100.00;96048.28;5048758;28;20205;-68
2021/10/17 06:09:25;;;;;;;1999.90;999.90;;;;;;;10.27;100.00;96046.63;5048316;28;20240;-68
2021/10/17 06:11:53;;;;;;;1999.90;999.90;;;;;;;10.21;100.00;96048.50;5048376;28;20248;-68
2021/10/17 06:14:21;;;;;;;1999.90;999.90;;;;;;;10.32;100.00;96059.53;5048176;28;20201;-68
2021/10/17 06:16:49;;;;;;;1999.90;999.90;;;;;;;10.29;100.00;96060.88;5048587;28;20224;-69
2021/10/17 06:19:16;;;;;;;1999.90;999.90;;;;;;;10.24;100.00;96057.56;5048347;28;20324;-69
2021/10/17 06:21:43;;;;;;;1999.90;999.90;;;;;;;10.25;100.00;96056.53;5047995;28;20201;-68
2021/10/17 06:24:10;;;;;;;1999.90;999.90;;;;;;;10.25;100.00;96057.31;5048413;28;20221;-68
2021/10/17 06:26:37;;;;;;;1999.90;999.90;;;;;;;10.30;100.00;96057.25;5048404;28;20593;-68
2021/10/17 06:29:04;;;;;;;1999.90;999.90;;;;;;;10.36;100.00;96058.72;5048473;28;20201;-68
2021/10/17 06:31:33;;;;;;;1999.90;999.90;;;;;;;10.36;100.00;96060.56;5047913;28;20745;-68
2021/10/17 06:34:00;;;;;;;1999.90;999.90;;;;;;;10.35;100.00;96062.38;5048202;28;20253;-68
2021/10/17 06:36:27;;;;;;;1999.90;999.90;;;;;;;10.45;100.00;96068.50;5048349;28;20201;-69
2021/10/17 06:38:54;;;;;;;1999.90;999.90;;;;;;;10.45;100.00;96071.09;5048105;28;20206;-68
2021/10/17 06:41:22;;;;;;;1999.90;999.90;;;;;;;10.44;100.00;96061.75;5047883;28;20695;-68
2021/10/17 06:43:49;;;;;;;1999.90;999.90;;;;;;;10.53;100.00;96066.06;5047921;28;20253;-69
2021/10/17 06:46:16;;;;;;;1999.90;999.90;;;;;;;10.62;100.00;96071.41;5047874;28;20228;-69
2021/10/17 06:48:45;;;;;;;1999.90;999.90;;;;;;;10.73;100.00;96065.81;5047602;28;20200;-68
2021/10/17 06:51:12;;;;;;;1999.90;999.90;;;;;;;10.87;100.00;96070.31;5047531;28;20208;-68
2021/10/17 06:53:39;;;;;;;1999.90;999.90;;;;;;;10.89;100.00;96076.78;5047941;28;20194;-68
2021/10/17 06:56:07;;;;;;;1999.90;999.90;;;;;;;10.71;100.00;96075.72;5047684;28;20204;-68
2021/10/17 06:58:34;;;;;;;1999.90;999.90;;;;;;;10.78;100.00;96078.75;5047803;28;20253;-68
2021/10/17 07:01:01;;;;;;;1999.90;999.90;;;;;;;10.78;100.00;96078.75;5047958;28;20208;-68
2021/10/17 07:03:29;;;;;;;1999.90;999.90;;;;;;;10.86;100.00;96082.53;5047395;28;20200;-68
2021/10/17 07:05:58;;;;;;;1999.90;999.90;;;;;;;10.99;100.00;96084.47;5047561;28;20220;-68
2021/10/17 07:08:25;;;;;;;1999.90;999.90;;;;;;;11.13;100.00;96082.69;5047428;28;20661;-68
2021/10/17 07:10:53;;;;;;;1999.90;999.90;;;;;;;11.21;100.00;96095.06;5047799;28;20207;-68
2021/10/17 07:13:20;;;;;;;1999.90;999.90;;;;;;;11.30;100.00;96078.84;5047376;28;20206;-68
2021/10/17 07:15:47;;;;;;;1999.90;999.90;;;;;;;11.22;100.00;96091.41;5046427;28;20205;-68
2021/10/17 07:18:14;;;;;;;1999.90;999.90;;;;;;;11.14;100.00;96094.66;5047323;28;20665;-68
2021/10/17 07:20:41;;;;;;;1999.90;999.90;;;;;;;11.30;100.00;96094.44;5046855;28;20759;-68
2021/10/17 07:23:10;;;;;;;1999.90;999.90;;;;;;;11.37;100.00;96089.66;5047295;28;20673;-68
2021/10/17 07:25:37;;;;;;;1999.90;999.90;;;;;;;11.36;100.00;96088.09;5047458;28;20221;-68
2021/10/17 07:28:06;;;;;;;1999.90;999.90;;;;;;;11.49;100.00;96090.00;5047323;28;20579;-68
2021/10/17 07:30:33;;;;;;;1999.90;999.90;;;;;;;11.53;100.00;96094.34;5047248;28;20233;-68
2021/10/17 07:33:00;;;;;;;1999.90;999.90;;;;;;;11.66;99.53;96098.03;5047006;28;20703;-68
2021/10/17 07:35:27;;;;;;;1999.90;999.90;;;;;;;11.70;99.95;96100.88;5047305;28;20203;-68
2021/10/17 07:37:55;;;;;;;1999.90;999.90;;;;;;;11.79;98.94;96097.34;5046984;28;20197;-68
2021/10/17 07:40:24;;;;;;;1999.90;999.90;;;;;;;11.82;99.03;96101.22;5047091;28;20211;-68
2021/10/17 07:42:51;;;;;;;1999.90;999.90;;;;;;;12.02;98.45;96101.63;5046941;28;20205;-69
2021/10/17 07:45:18;;;;;;;1999.90;999.90;;;;;;;12.08;97.46;96105.72;5046993;28;20267;-67
2021/10/17 07:47:46;;;;;;;1999.90;999.90;;;;;;;12.29;95.98;96100.91;5046882;28;20687;-69
2021/10/17 07:50:13;;;;;;;1999.90;999.90;;;;;;;12.42;95.76;96100.13;5046964;28;20206;-68
2021/10/17 07:52:40;;;;;;;1999.90;999.90;;;;;;;12.46;95.01;96101.09;5046813;28;20241;-68
2021/10/17 07:55:08;;;;;;;1999.90;999.90;;;;;;;12.46;96.40;96106.31;5046862;28;20595;-68
2021/10/17 07:57:47;;;;;;;1999.90;999.90;;;;;;;12.60;96.32;96103.72;5046776;28;20688;-68
2021/10/17 08:00:18;;;;;;;1999.90;999.90;;;;;;;12.58;95.40;96100.63;5035228;28;20559;-68
2021/10/17 08:02:45;;;;;;;1999.90;999.90;;;;;;;12.53;94.38;96105.94;5047103;28;20189;-68
2021/10/17 08:05:13;;;;;;;1999.90;999.90;;;;;;;12.63;94.46;96104.97;5046613;28;20235;-69
2021/10/17 08:07:41;;;;;;;1999.90;999.90;;;;;;;12.65;92.85;96103.59;5046946;28;20200;-68
2021/10/17 08:10:09;;;;;;;1999.90;999.90;;;;;;;12.81;92.65;96107.47;5046858;28;20201;-68
2021/10/17 08:12:37;;;;;;;1999.90;999.90;;;;;;;12.76;92.58;96106.78;5046493;28;20207;-68
2021/10/17 08:15:08;;;;;;;1999.90;999.90;;;;;;;12.91;92.45;96106.47;5046582;28;20208;-68
2021/10/17 08:17:35;;;;;;;1999.90;999.90;;;;;;;12.97;91.25;96107.16;5046508;28;20582;-68
2021/10/17 08:20:05;;;;;;;1999.90;999.90;;;;;;;12.92;92.79;96114.03;5046778;28;20274;-67
2021/10/17 08:22:32;;;;;;;1999.90;999.90;;;;;;;12.98;92.08;96109.47;5046863;28;20197;-68
2021/10/17 08:24:59;;;;;;;1999.90;999.90;;;;;;;13.15;92.12;96108.91;5046629;28;20228;-68
2021/10/17 08:27:26;;;;;;;1999.90;999.90;;;;;;;13.36;92.78;96104.75;5047598;28;20193;-68
2021/10/17 08:29:53;;;;;;;1999.90;999.90;;;;;;;13.53;91.77;96107.50;5049649;28;20244;-68
2021/10/17 08:32:22;;;;;;;1999.90;999.90;;;;;;;13.76;91.11;96106.44;5049885;28;20182;-69
2021/10/17 08:34:49;;;;;;;1999.90;999.90;;;;;;;13.67;89.56;96105.63;5049744;28;20304;-68
2021/10/17 08:37:16;;;;;;;1999.90;999.90;;;;;;;13.60;90.35;96110.47;5049993;28;20197;-68
2021/10/17 08:39:43;;;;;;;1999.90;999.90;;;;;;;13.60;91.50;96113.06;5049609;28;20992;-68
2021/10/17 08:42:11;;;;;;;1999.90;999.90;;;;;;;13.79;89.03;96111.09;5049940;28;20741;-68
2021/10/17 08:44:40;;;;;;;1999.90;999.90;;;;;;;13.73;87.80;96108.88;5049632;28;20236;-69
2021/10/17 08:47:07;;;;;;;1999.90;999.90;;;;;;;13.97;86.95;96109.34;5049865;28;20197;-68
2021/10/17 08:49:37;;;;;;;1999.90;999.90;;;;;;;14.03;86.95;96107.38;5049957;28;20249;-68
2021/10/17 08:52:10;;;;;;;1999.90;999.90;;;;;;;13.91;86.92;96105.28;5049937;28;20280;-68
2021/10/17 08:54:39;;;;;;;1999.90;999.90;;;;;;;13.93;85.81;96112.84;5049584;28;20247;-68
2021/10/17 08:57:06;;;;;;;1999.90;999.90;;;;;;;13.94;85.00;96111.78;5049571;28;20284;-69
2021/10/17 08:59:33;;;;;;;1999.90;999.90;;;;;;;14.13;85.86;96105.28;5049637;28;20190;-68
2021/10/17 09:02:12;;;;;;;1999.90;999.90;;;;;;;13.99;86.38;96109.81;5049917;28;20194;-68
2021/10/17 09:04:41;;;;;;;1999.90;999.90;;;;;;;14.05;85.60;96105.22;5049456;28;20236;-68
2021/10/17 09:07:20;;;;;;;1999.90;999.90;;;;;;;14.28;83.50;96105.94;5049486;28;20205;-68
2021/10/17 09:10:12;;;;;;;1999.90;999.90;;;;;;;14.61;82.00;96112.41;5049467;28;20209;-68
2021/10/17 09:12:40;;;;;;;1999.90;999.90;;;;;;;14.63;81.10;96113.66;5053891;28;20285;-67
2021/10/17 09:15:27;;;;;;;1999.90;999.90;;;;;;;14.73;81.50;96114.44;5048948;28;20197;-67
2021/10/17 09:18:19;;;;;;;1999.90;999.90;;;;;;;14.75;83.25;96110.44;5049145;28;20271;-68
2021/10/17 09:20:57;;;;;;;1999.90;999.90;;;;;;;14.69;83.51;96100.44;5029820;28;20312;-68
2021/10/17 09:23:39;;;;;;;1999.90;999.90;;;;;;;14.76;83.68;96095.53;5049351;28;20185;-68
2021/10/17 09:26:15;;;;;;;1999.90;999.90;;;;;;;15.03;81.93;96100.50;5049137;28;20213;-68
2021/10/17 09:28:42;;;;;;;1999.90;999.90;;;;;;;15.14;80.50;96096.53;5049255;28;20324;-68
2021/10/17 09:31:12;;;;;;;1999.90;999.90;;;;;;;15.01;81.50;96092.19;5048975;28;20233;-68
2021/10/17 09:33:44;;;;;;;1999.90;999.90;;;;;;;15.23;82.65;96089.44;5049086;28;20248;-68
2021/10/17 09:36:27;;;;;;;1999.90;999.90;;;;;;;15.55;82.86;96084.81;5048978;28;20190;-68
2021/10/17 09:39:00;;;;;;;1999.90;999.90;;;;;;;15.58;83.49;96085.00;5047722;28;20185;-68
2021/10/17 09:41:33;;;;;;;1999.90;999.90;;;;;;;15.45;79.48;96084.03;5049133;28;20188;-68
2021/10/17 09:44:02;;;;;;;1999.90;999.90;;;;;;;15.21;84.04;96082.97;5048829;28;20650;-68
2021/10/17 09:46:29;;;;;;;1999.90;999.90;;;;;;;15.62;83.17;96083.28;5048703;28;20232;-68
2021/10/17 09:48:57;;;;;;;1999.90;999.90;;;;;;;15.82;78.83;96079.25;5048851;28;20202;-68
2021/10/17 09:51:28;;;;;;;1999.90;999.90;;;;;;;15.87;78.74;96087.72;5048678;28;20204;-68
2021/10/17 09:53:57;;;;;;;1999.90;999.90;;;;;;;15.80;78.29;96084.78;5048721;28;20228;-68
2021/10/17 09:56:35;;;;;;;1999.90;999.90;;;;;;;15.89;78.71;96084.75;5048644;28;20683;-68
2021/10/17 09:59:04;;;;;;;1999.90;999.90;;;;;;;15.81;77.75;96080.31;5048512;28;20582;-68
2021/10/17 10:01:32;;;;;;;1999.90;999.90;;;;;;;15.89;77.97;96076.91;5048772;28;20201;-68
2021/10/17 10:04:01;;;;;;;1999.90;999.90;;;;;;;15.83;79.56;96076.31;5048592;28;20284;-68
2021/10/17 10:06:31;;;;;;;1999.90;999.90;;;;;;;15.93;78.53;96081.22;5048538;28;20270;-68
2021/10/17 10:09:00;;;;;;;1999.90;999.90;;;;;;;15.96;79.91;96081.66;5048389;28;20673;-68
2021/10/17 10:11:30;;;;;;;1999.90;999.90;;;;;;;15.88;78.34;96067.53;5048278;28;20201;-68
2021/10/17 10:13:58;;;;;;;1999.90;999.90;;;;;;;15.93;78.71;96075.22;5048319;28;20202;-68
2021/10/17 10:16:27;;;;;;;1999.90;999.90;;;;;;;15.93;77.09;96072.59;5048192;28;20253;-68
2021/10/17 10:18:58;;;;;;;1999.90;999.90;;;;;;;15.91;76.94;96066.88;5048304;28;20625;-68
2021/10/17 10:21:26;;;;;;;1999.90;999.90;;;;;;;15.67;77.82;96056.91;5048455;28;20273;-68
2021/10/17 10:23:57;;;;;;;1999.90;999.90;;;;;;;15.73;80.09;96052.28;5048536;28;20208;-69
2021/10/17 10:26:26;;;;;;;1999.90;999.90;;;;;;;16.03;79.68;96055.75;5048075;28;20205;-68
2021/10/17 10:28:55;;;;;;;1999.90;999.90;;;;;;;16.07;77.60;96046.94;5048610;28;20580;-68
2021/10/17 10:31:50;;;;;;;1999.90;999.90;;;;;;;15.96;77.35;96048.38;5048297;28;20237;-68
2021/10/17 10:35:03;;;;;;;1999.90;999.90;;;;;;;16.06;76.50;96047.25;5048155;28;20193;-68
2021/10/17 10:37:32;;;;;;;1999.90;999.90;;;;;;;15.90;77.15;96045.16;5048109;28;20650;-68
2021/10/17 10:40:17;;;;;;;1999.90;999.90;;;;;;;15.75;78.05;96037.00;5047857;28;20201;-68
2021/10/17 10:42:47;;;;;;;1999.90;999.90;;;;;;;15.82;78.86;96043.31;5047855;28;20193;-68
2021/10/17 10:45:24;;;;;;;1999.90;999.90;;;;;;;15.71;79.31;96036.09;5047994;28;20228;-68
2021/10/17 10:48:20;;;;;;;1999.90;999.90;;;;;;;15.60;80.38;96040.13;5048187;28;20189;-68
2021/10/17 10:50:49;;;;;;;1999.90;999.90;;;;;;;15.71;81.25;96033.47;5047736;28;20262;-68
2021/10/17 10:53:52;;;;;;;1999.90;999.90;;;;;;;15.72;78.66;96042.88;5047679;28;20703;-68
2021/10/17 10:56:43;;;;;;;1999.90;999.90;;;;;;;15.83;78.30;96041.47;5047998;28;20192;-68
2021/10/17 10:59:11;;;;;;;1999.90;999.90;;;;;;;15.71;78.50;96034.25;5047653;28;20197;-68